createdAt,value
2019-04-05T00:01:17.646Z,91.31
2019-04-05T00:03:46.489Z,91.24
2019-04-05T00:06:15.018Z,91.25
2019-04-05T00:08:43.656Z,91.41
2019-04-05T00:11:12.965Z,91.31
2019-04-05T00:13:41.655Z,91.48
2019-04-05T00:16:10.945Z,91.33
2019-04-05T00:18:40.046Z,91.43
2019-04-05T00:21:08.828Z,91.47
2019-04-05T00:23:37.414Z,91.37
2019-04-05T00:26:06.309Z,91.34
2019-04-05T00:28:34.890Z,91.56
2019-04-05T00:31:03.474Z,91.50
2019-04-05T00:33:32.362Z,91.50
2019-04-05T00:36:00.947Z,91.54
2019-04-05T00:38:29.534Z,91.52
2019-04-05T00:40:58.217Z,91.49
2019-04-05T00:43:26.800Z,91.54
2019-04-05T00:45:55.694Z,91.61
2019-04-05T00:48:24.443Z,91.60
2019-04-05T00:50:55.278Z,91.57
2019-04-05T00:53:23.901Z,91.55
2019-04-05T00:55:52.790Z,91.67
2019-04-05T00:58:21.377Z,91.73
2019-04-05T01:00:50.087Z,91.73
2019-04-05T01:03:18.747Z,91.80
2019-04-05T01:05:47.644Z,91.85
2019-04-05T01:08:16.331Z,91.79
2019-04-05T01:10:45.386Z,91.96
2019-04-05T01:13:14.088Z,91.97
2019-04-05T01:15:42.693Z,91.98
2019-04-05T01:18:11.590Z,91.97
2019-04-05T01:20:42.829Z,91.93
2019-04-05T01:23:11.719Z,92.00
2019-04-05T01:25:41.322Z,91.94
2019-04-05T01:28:10.393Z,92.07
2019-04-05T01:30:39.273Z,91.97
2019-04-05T01:33:07.886Z,91.91
2019-04-05T01:35:36.422Z,92.01
2019-04-05T01:38:05.113Z,91.99
2019-04-05T01:40:37.162Z,91.91
2019-04-05T01:43:05.547Z,91.93
2019-04-05T01:45:34.508Z,91.97
2019-04-05T01:48:03.405Z,92.01
2019-04-05T01:50:31.981Z,91.98
2019-04-05T01:53:00.842Z,91.94
2019-04-05T01:55:30.076Z,91.79
2019-04-05T01:57:58.620Z,91.59
2019-04-05T02:00:27.339Z,91.58
2019-04-05T02:02:55.935Z,91.49
2019-04-05T02:05:24.715Z,91.42
2019-04-05T02:07:53.501Z,91.36
2019-04-05T02:10:22.186Z,91.32
2019-04-05T02:12:50.978Z,91.34
2019-04-05T02:15:28.569Z,91.28
2019-04-05T02:17:57.846Z,91.25
2019-04-05T02:20:27.276Z,91.04
2019-04-05T02:22:56.272Z,91.02
2019-04-05T02:25:25.158Z,90.86
2019-04-05T02:27:53.861Z,90.80
2019-04-05T02:30:22.783Z,90.64
2019-04-05T02:32:51.331Z,90.58
2019-04-05T02:35:19.879Z,90.62
2019-04-05T02:37:48.799Z,90.64
2019-04-05T02:40:18.317Z,90.66
2019-04-05T02:42:50.783Z,90.57
2019-04-05T02:45:20.489Z,90.48
2019-04-05T02:47:52.159Z,90.54
2019-04-05T02:50:23.101Z,90.51
2019-04-05T02:52:55.254Z,90.43
2019-04-05T02:55:25.886Z,90.21
2019-04-05T02:57:55.299Z,89.99
2019-04-05T03:00:24.041Z,90.00
2019-04-05T03:02:53.014Z,89.92
2019-04-05T03:05:23.304Z,89.68
2019-04-05T03:07:52.260Z,89.79
2019-04-05T03:10:54.393Z,89.90
2019-04-05T03:13:29.300Z,89.92
2019-04-05T03:16:00.988Z,90.04
2019-04-05T03:18:30.952Z,90.14
2019-04-05T03:21:02.754Z,90.10
2019-04-05T03:23:33.335Z,89.99
2019-04-05T03:26:05.089Z,90.07
2019-04-05T03:28:36.890Z,89.98
2019-04-05T03:31:07.616Z,89.98
2019-04-05T03:33:36.209Z,89.98
2019-04-05T03:36:05.128Z,89.92
2019-04-05T03:38:33.983Z,89.98
2019-04-05T03:41:02.875Z,89.96
2019-04-05T03:43:31.870Z,89.85
2019-04-05T03:46:00.755Z,89.85
2019-04-05T03:48:29.457Z,89.86
2019-04-05T03:50:58.260Z,89.85
2019-04-05T03:53:27.128Z,89.89
2019-04-05T03:55:56.734Z,89.94
2019-04-05T03:58:25.431Z,89.92
2019-04-05T04:00:54.309Z,89.97
2019-04-05T04:03:23.206Z,89.95
2019-04-05T04:05:52.190Z,89.92
2019-04-05T04:08:23.391Z,89.88
2019-04-05T04:10:52.587Z,89.76
2019-04-05T04:13:21.330Z,89.71
2019-04-05T04:15:51.140Z,89.70
2019-04-05T04:18:20.038Z,89.73
2019-04-05T04:20:52.065Z,89.78
2019-04-05T04:23:21.502Z,89.82
2019-04-05T04:25:51.693Z,89.84
2019-04-05T04:28:23.482Z,89.97
2019-04-05T04:30:53.085Z,89.84
2019-04-05T04:33:21.984Z,89.91
2019-04-05T04:35:51.739Z,90.13
2019-04-05T04:38:20.673Z,90.29
2019-04-05T04:40:49.381Z,90.31
2019-04-05T04:43:17.992Z,90.33
2019-04-05T04:45:47.009Z,90.27
2019-04-05T04:48:15.932Z,90.24
2019-04-05T04:50:45.140Z,90.28
2019-04-05T04:53:13.933Z,90.29
2019-04-05T04:55:42.834Z,90.28
2019-04-05T04:58:12.229Z,90.26
2019-04-05T05:00:41.035Z,90.25
2019-04-05T05:03:10.004Z,90.05
2019-04-05T05:05:39.145Z,89.98
2019-04-05T05:08:08.911Z,89.89
2019-04-05T05:10:37.803Z,89.80
2019-04-05T05:13:06.808Z,89.67
2019-04-05T05:15:35.988Z,89.50
2019-04-05T05:18:04.887Z,89.36
2019-04-05T05:20:33.780Z,89.23
2019-04-05T05:23:02.704Z,89.25
2019-04-05T05:25:31.583Z,89.26
2019-04-05T05:28:00.657Z,89.25
2019-04-05T05:30:29.557Z,89.15
2019-04-05T05:32:58.805Z,89.19
2019-04-05T05:35:28.358Z,89.01
2019-04-05T05:37:57.366Z,89.01
2019-04-05T05:40:34.899Z,89.01
2019-04-05T05:42:56.468Z,89.12
2019-04-05T05:45:25.235Z,89.10
2019-04-05T05:47:54.042Z,88.87
2019-04-05T05:50:22.754Z,88.51
2019-04-05T05:52:51.415Z,88.41
2019-04-05T05:55:20.311Z,88.10
2019-04-05T10:53:48.268Z,88.03
2019-04-05T10:56:17.000Z,88.03
2019-04-05T10:58:45.580Z,71.36
2019-04-05T11:01:14.258Z,70.20
2019-04-05T11:03:42.938Z,70.08
2019-04-05T11:06:11.546Z,69.17
2019-04-05T11:08:40.221Z,68.58
2019-04-05T11:11:08.804Z,68.35
2019-04-05T11:13:37.388Z,68.63
2019-04-05T11:16:06.075Z,68.21
2019-04-05T11:18:34.621Z,68.24
2019-04-05T11:21:03.458Z,68.41
2019-04-05T11:23:32.129Z,68.24
2019-04-05T11:26:00.714Z,66.87
2019-04-05T11:28:29.335Z,65.71
2019-04-05T11:30:58.803Z,65.18
2019-04-05T11:33:27.505Z,65.67
2019-04-05T11:35:57.904Z,65.65
2019-04-05T11:38:27.203Z,65.37
2019-04-05T11:40:56.586Z,64.65
2019-04-05T11:43:31.236Z,64.84
2019-04-05T11:45:58.803Z,64.83
2019-04-05T11:48:28.246Z,64.98
2019-04-05T11:50:58.437Z,64.09
2019-04-05T11:53:27.124Z,64.43
2019-04-05T11:55:55.677Z,64.70
2019-04-05T11:58:24.283Z,65.03
2019-04-05T12:01:00.458Z,65.30
2019-04-05T12:03:33.328Z,65.10
2019-04-05T12:06:01.926Z,65.08
2019-04-05T12:08:30.881Z,64.77
2019-04-05T12:10:59.496Z,64.94
2019-04-05T12:13:28.074Z,65.08
2019-04-05T12:15:58.281Z,65.45
2019-04-05T12:18:27.089Z,65.33
2019-04-05T12:21:00.265Z,64.78
2019-04-05T12:23:26.204Z,64.92
2019-04-05T12:25:54.911Z,65.47
2019-04-05T12:28:23.589Z,65.35
2019-04-05T12:30:52.473Z,65.22
2019-04-05T12:33:21.066Z,64.58
2019-04-05T12:35:52.552Z,63.81
2019-04-05T12:38:28.409Z,63.50
2019-04-05T12:40:58.534Z,63.50
2019-04-05T12:43:27.391Z,63.03
2019-04-05T12:45:56.094Z,62.12
2019-04-05T12:48:24.773Z,62.18
2019-04-05T12:51:00.942Z,60.26
2019-04-05T12:53:24.724Z,60.17
2019-04-05T12:55:56.888Z,59.04
2019-04-05T12:58:25.887Z,58.28
2019-04-05T13:00:56.337Z,58.11
2019-04-05T13:03:25.570Z,58.31
2019-04-05T13:05:57.053Z,58.11
2019-04-05T13:08:24.941Z,58.29
2019-04-05T13:10:55.512Z,58.44
2019-04-05T13:13:26.441Z,57.55
2019-04-05T13:15:54.134Z,57.34
2019-04-05T13:18:25.118Z,58.21
2019-04-05T13:20:53.170Z,59.18
2019-04-05T13:23:21.855Z,59.55
2019-04-05T13:25:51.153Z,59.72
2019-04-05T13:28:20.057Z,59.76
2019-04-05T13:30:49.389Z,59.61
2019-04-05T13:33:18.047Z,59.63
2019-04-05T13:35:46.572Z,59.73
2019-04-05T13:38:15.297Z,59.95
2019-04-05T13:40:43.886Z,59.90
2019-04-05T13:43:12.447Z,59.95
2019-04-05T13:45:41.575Z,60.49
2019-04-05T13:48:10.358Z,60.83
2019-04-05T13:50:41.446Z,60.95
2019-04-05T13:53:11.152Z,61.10
2019-04-05T13:55:40.730Z,60.89
2019-04-05T13:58:11.155Z,61.25
2019-04-05T14:00:40.337Z,61.60
2019-04-05T14:03:09.481Z,61.80
2019-04-05T14:05:38.148Z,61.85
2019-04-05T14:08:10.465Z,61.72
2019-04-05T14:10:37.740Z,61.72
2019-04-05T14:13:09.545Z,61.77
2019-04-05T14:15:37.063Z,61.85
2019-04-05T14:18:05.660Z,61.86
2019-04-05T14:20:34.251Z,61.94
2019-04-05T14:23:02.847Z,61.74
2019-04-05T14:25:31.492Z,61.67
2019-04-05T14:28:00.083Z,61.55
2019-04-05T14:30:32.457Z,61.63
2019-04-05T14:32:59.381Z,61.39
2019-04-05T14:35:27.901Z,61.44
2019-04-05T14:37:56.473Z,61.48
2019-04-05T14:40:28.411Z,61.46
2019-04-05T14:42:55.354Z,61.09
2019-04-05T14:45:23.991Z,60.72
2019-04-05T14:47:52.643Z,60.28
2019-04-05T14:50:21.545Z,60.40
2019-04-05T14:52:50.220Z,59.83
2019-04-05T14:55:18.806Z,59.94
2019-04-05T14:57:47.497Z,60.16
2019-04-05T15:00:18.031Z,60.04
2019-04-05T15:02:46.697Z,60.21
2019-04-05T15:05:15.699Z,60.65
2019-04-05T15:07:44.693Z,60.74
2019-04-05T15:10:14.111Z,60.52
2019-04-05T15:12:42.675Z,59.90
2019-04-05T15:15:11.577Z,59.15
2019-04-05T15:17:48.045Z,58.56
2019-04-05T15:20:11.090Z,57.87
2019-04-05T15:22:42.185Z,58.19
2019-04-05T15:25:10.466Z,58.32
2019-04-05T15:27:39.321Z,58.58
2019-04-05T15:30:08.381Z,58.44
2019-04-05T15:32:37.700Z,58.38
2019-04-05T15:35:09.762Z,58.40
2019-04-05T15:37:38.074Z,58.16
2019-04-05T15:40:08.549Z,57.73
2019-04-05T15:42:37.154Z,57.63
2019-04-05T15:45:09.832Z,57.73
2019-04-05T15:47:38.816Z,58.24
2019-04-05T15:50:08.489Z,59.17
2019-04-05T15:52:37.221Z,60.02
2019-04-05T15:55:07.014Z,60.38
2019-04-05T15:57:35.627Z,60.84
2019-04-05T16:00:09.042Z,61.01
2019-04-05T16:02:38.538Z,61.34
2019-04-05T16:05:08.316Z,61.88
2019-04-05T16:07:37.024Z,62.26
2019-04-05T16:10:08.677Z,62.52
2019-04-05T16:12:37.590Z,62.94
2019-04-05T16:15:08.908Z,63.51
2019-04-05T16:17:37.917Z,64.00
2019-04-05T16:20:10.714Z,64.79
2019-04-05T16:22:39.403Z,65.29
2019-04-05T16:25:08.782Z,65.67
2019-04-05T16:27:37.465Z,66.11
2019-04-05T16:30:09.646Z,66.57
2019-04-05T16:32:38.261Z,67.00
2019-04-05T16:35:07.232Z,67.44
2019-04-05T16:37:36.027Z,67.79
2019-04-05T16:40:07.375Z,68.20
2019-04-05T16:42:36.648Z,68.82
2019-04-05T16:45:11.890Z,68.97
2019-04-05T16:47:40.578Z,69.39
2019-04-05T16:50:10.185Z,69.55
2019-04-05T16:52:45.060Z,69.84
2019-04-05T16:55:09.613Z,69.89
2019-04-05T16:57:38.790Z,70.00
2019-04-05T17:00:11.548Z,70.11
2019-04-05T17:02:41.468Z,70.32
2019-04-05T17:05:10.463Z,70.67
2019-04-05T17:07:39.302Z,70.61
2019-04-05T17:10:09.595Z,70.80
2019-04-05T17:12:38.129Z,70.88
2019-04-05T17:15:10.193Z,71.05
2019-04-05T17:17:38.866Z,71.21
2019-04-05T17:20:08.025Z,71.33
2019-04-05T17:22:37.322Z,71.42
2019-04-05T17:25:07.055Z,71.55
2019-04-05T17:27:35.641Z,71.76
2019-04-05T17:30:06.141Z,71.93
2019-04-05T17:32:34.759Z,71.92
2019-04-05T17:35:03.846Z,71.92
2019-04-05T17:37:32.746Z,72.04
2019-04-05T17:40:01.290Z,72.10
2019-04-05T17:42:29.947Z,72.16
2019-04-05T17:44:58.610Z,72.21
2019-04-05T17:47:27.291Z,72.27
2019-04-05T17:49:55.821Z,72.24
2019-04-05T17:52:25.240Z,72.28
2019-04-05T17:54:53.843Z,72.36
2019-04-05T17:57:22.858Z,72.45
2019-04-05T17:59:51.666Z,72.40
2019-04-05T18:02:20.239Z,72.29
2019-04-05T18:04:48.793Z,72.27
2019-04-05T18:07:17.397Z,72.32
2019-04-05T18:09:45.947Z,72.42
2019-04-05T18:12:14.561Z,72.59
2019-04-05T18:14:44.677Z,72.70
2019-04-05T18:17:13.371Z,72.74
2019-04-05T18:19:41.948Z,72.69
2019-04-05T18:22:10.833Z,72.67
2019-04-05T18:24:39.736Z,72.76
2019-04-05T18:27:08.421Z,72.86
2019-04-05T18:29:37.410Z,73.05
2019-04-05T18:32:06.095Z,73.14
2019-04-05T18:34:34.782Z,73.13
2019-04-05T18:37:04.159Z,73.12
2019-04-05T18:39:32.787Z,73.14
2019-04-05T18:42:01.317Z,73.11
2019-04-05T18:44:30.239Z,73.10
2019-04-05T18:46:58.785Z,73.02
2019-04-05T18:49:27.511Z,72.91
2019-04-05T18:51:58.066Z,72.85
2019-04-05T18:54:26.737Z,72.91
2019-04-05T18:56:55.312Z,73.02
2019-04-05T18:59:23.998Z,72.94
2019-04-05T19:01:52.892Z,72.84
2019-04-05T19:04:21.733Z,72.81
2019-04-05T19:06:51.044Z,73.00
2019-04-05T19:09:19.981Z,73.11
2019-04-05T19:11:48.556Z,73.18
2019-04-05T19:14:17.272Z,73.21
2019-04-05T19:16:46.037Z,73.31
2019-04-05T19:19:17.664Z,73.34
2019-04-05T19:21:45.352Z,73.34
2019-04-05T19:24:13.936Z,73.46
2019-04-05T19:26:42.620Z,73.43
2019-04-05T19:29:11.713Z,73.40
2019-04-05T19:49:14.600Z,73.65
2019-04-05T19:51:43.207Z,73.62
2019-04-05T19:54:11.803Z,73.60
2019-04-05T19:56:40.475Z,73.65
2019-04-05T19:59:10.492Z,73.66
2019-04-05T20:01:39.041Z,73.74
2019-04-05T20:04:07.739Z,73.82
2019-04-05T20:06:36.758Z,73.94
2019-04-05T20:09:07.364Z,74.09
2019-04-05T20:11:35.972Z,74.29
2019-04-05T20:14:05.073Z,74.43
2019-04-05T20:16:35.919Z,74.69
2019-04-05T20:19:04.754Z,74.79
2019-04-05T20:21:33.380Z,74.91
2019-04-05T20:24:13.319Z,74.90
2019-04-05T20:26:32.488Z,74.98
2019-04-05T20:29:01.176Z,74.97
2019-04-05T20:31:29.726Z,75.08
2019-04-05T20:33:58.349Z,75.13
2019-04-05T20:36:27.049Z,75.11
2019-04-05T20:38:55.628Z,75.16
2019-04-05T20:41:24.166Z,75.37
2019-04-05T20:43:52.786Z,75.48
2019-04-05T20:46:21.366Z,75.47
2019-04-05T20:48:50.057Z,75.53
2019-04-05T20:51:18.751Z,75.62
2019-04-05T20:53:47.604Z,75.66
2019-04-05T20:56:16.222Z,75.66
2019-04-05T20:58:44.892Z,75.71
2019-04-05T21:01:13.457Z,75.74
2019-04-05T21:03:42.099Z,75.84
2019-04-05T21:06:11.022Z,75.91
2019-04-05T21:08:39.755Z,76.17
2019-04-05T21:11:08.671Z,76.33
2019-04-05T21:13:37.943Z,76.41
2019-04-05T21:16:06.588Z,76.44
2019-04-05T21:18:35.217Z,76.55
2019-04-05T21:21:03.907Z,76.67
2019-04-05T21:23:32.438Z,76.90
2019-04-05T21:26:01.175Z,77.00
2019-04-05T21:28:29.819Z,77.20
2019-04-05T21:30:58.477Z,77.50
2019-04-05T21:33:26.968Z,77.75
2019-04-05T21:35:55.816Z,78.03
2019-04-05T21:38:24.381Z,78.22
2019-04-05T21:40:53.007Z,78.51
2019-04-05T21:43:22.079Z,78.75
2019-04-05T21:45:50.776Z,79.04
2019-04-05T21:48:19.355Z,79.26
2019-04-05T21:50:48.033Z,79.53
2019-04-05T21:53:16.573Z,79.69
2019-04-05T21:55:45.199Z,79.77
2019-04-05T21:58:13.777Z,79.82
2019-04-05T22:00:50.063Z,79.90
2019-04-05T22:03:18.735Z,79.98
2019-04-05T22:05:47.320Z,80.00
2019-04-05T22:08:16.210Z,79.96
2019-04-05T22:10:44.854Z,79.92
2019-04-05T22:13:13.552Z,79.91
2019-04-05T22:15:42.235Z,79.95
2019-04-05T22:18:11.015Z,79.91
2019-04-05T22:20:39.641Z,79.92
2019-04-05T22:23:08.634Z,79.91
2019-04-05T22:25:37.323Z,79.89
2019-04-05T22:28:05.912Z,79.82
2019-04-05T22:30:34.487Z,79.91
2019-04-05T22:33:03.386Z,79.94
2019-04-05T22:35:31.920Z,80.02
2019-04-05T22:38:00.551Z,80.12
2019-04-05T22:40:29.235Z,80.11
2019-04-05T22:42:57.820Z,80.08
2019-04-05T22:45:26.710Z,80.05
2019-04-05T22:47:55.295Z,79.99
2019-04-05T22:50:23.880Z,79.82
2019-04-05T22:52:52.471Z,79.67
2019-04-05T22:55:21.150Z,79.42
2019-04-05T22:57:49.742Z,79.15
2019-04-05T23:00:18.626Z,78.92
2019-04-05T23:02:47.421Z,78.87
2019-04-05T23:05:16.187Z,78.88
2019-04-05T23:07:45.209Z,78.84
2019-04-05T23:10:14.716Z,78.80
2019-04-05T23:12:44.675Z,78.70
2019-04-05T23:15:15.025Z,78.55
2019-04-05T23:17:43.635Z,78.34
2019-04-05T23:20:12.727Z,78.26
2019-04-05T23:22:41.327Z,78.22
2019-04-05T23:25:21.263Z,78.18
2019-04-05T23:27:40.428Z,78.09
2019-04-05T23:30:09.806Z,77.98
2019-04-05T23:32:38.515Z,77.99
2019-04-05T23:35:07.699Z,77.97
2019-04-05T23:37:36.240Z,77.96
2019-04-05T23:40:06.319Z,77.94
2019-04-05T23:42:34.899Z,77.97
2019-04-05T23:45:04.741Z,77.96
2019-04-05T23:47:33.432Z,78.01
2019-04-05T23:50:02.049Z,78.20
2019-04-05T23:52:30.684Z,78.44
2019-04-05T23:54:59.352Z,78.59
2019-04-05T23:57:27.936Z,78.96
2019-04-05T23:59:56.520Z,79.05
